sensor_id;sensor_type;location;lat;lon;timestamp;P1;durP1;ratioP1;P2;durP2;ratioP2
31676;SDS011;18385;51.572;6.578;2023-09-30T00:01:00;12.55;;;3.38;;
31676;SDS011;18385;51.572;6.578;2023-09-30T00:03:27;13.50;;;4.32;;
31676;SDS011;18385;51.572;6.578;2023-09-30T00:05:53;8.80;;;3.28;;
31676;SDS011;18385;51.572;6.578;2023-09-30T00:08:18;8.63;;;3.50;;
31676;SDS011;18385;51.572;6.578;2023-09-30T00:10:44;12.00;;;3.40;;
31676;SDS011;18385;51.572;6.578;2023-09-30T00:13:11;19.95;;;3.22;;
31676;SDS011;18385;51.572;6.578;2023-09-30T00:15:37;11.98;;;3.88;;
31676;SDS011;18385;51.572;6.578;2023-09-30T00:18:03;10.93;;;3.83;;
31676;SDS011;18385;51.572;6.578;2023-09-30T00:20:30;9.43;;;2.80;;
31676;SDS011;18385;51.572;6.578;2023-09-30T00:22:56;11.20;;;3.03;;
31676;SDS011;18385;51.572;6.578;2023-09-30T00:25:21;7.70;;;2.50;;
31676;SDS011;18385;51.572;6.578;2023-09-30T00:27:47;10.75;;;3.13;;
31676;SDS011;18385;51.572;6.578;2023-09-30T00:30:13;16.13;;;3.40;;
31676;SDS011;18385;51.572;6.578;2023-09-30T00:32:39;11.05;;;3.20;;
31676;SDS011;18385;51.572;6.578;2023-09-30T00:35:05;12.15;;;4.00;;
31676;SDS011;18385;51.572;6.578;2023-09-30T00:37:38;13.50;;;2.80;;
31676;SDS011;18385;51.572;6.578;2023-09-30T00:40:04;9.18;;;3.33;;
31676;SDS011;18385;51.572;6.578;2023-09-30T00:42:30;13.05;;;3.70;;
31676;SDS011;18385;51.572;6.578;2023-09-30T00:44:56;9.73;;;3.08;;
31676;SDS011;18385;51.572;6.578;2023-09-30T00:47:22;11.20;;;3.08;;
31676;SDS011;18385;51.572;6.578;2023-09-30T00:49:49;10.48;;;3.35;;
31676;SDS011;18385;51.572;6.578;2023-09-30T00:52:19;13.48;;;3.40;;
31676;SDS011;18385;51.572;6.578;2023-09-30T00:54:45;12.48;;;3.55;;
31676;SDS011;18385;51.572;6.578;2023-09-30T00:57:12;12.52;;;3.10;;
31676;SDS011;18385;51.572;6.578;2023-09-30T00:59:39;10.45;;;3.10;;
31676;SDS011;18385;51.572;6.578;2023-09-30T01:02:06;8.98;;;3.05;;
31676;SDS011;18385;51.572;6.578;2023-09-30T01:04:36;17.75;;;3.13;;
31676;SDS011;18385;51.572;6.578;2023-09-30T01:07:03;15.30;;;3.08;;
31676;SDS011;18385;51.572;6.578;2023-09-30T01:09:30;9.45;;;2.80;;
31676;SDS011;18385;51.572;6.578;2023-09-30T01:11:57;12.50;;;3.70;;
31676;SDS011;18385;51.572;6.578;2023-09-30T01:14:32;14.18;;;4.95;;
31676;SDS011;18385;51.572;6.578;2023-09-30T01:17:09;9.85;;;3.35;;
31676;SDS011;18385;51.572;6.578;2023-09-30T01:19:36;13.35;;;3.40;;
31676;SDS011;18385;51.572;6.578;2023-09-30T01:22:02;12.85;;;3.45;;
31676;SDS011;18385;51.572;6.578;2023-09-30T01:24:31;10.93;;;3.63;;
31676;SDS011;18385;51.572;6.578;2023-09-30T01:27:04;9.85;;;3.78;;
31676;SDS011;18385;51.572;6.578;2023-09-30T01:29:29;10.77;;;3.47;;
31676;SDS011;18385;51.572;6.578;2023-09-30T01:31:55;13.73;;;3.65;;
31676;SDS011;18385;51.572;6.578;2023-09-30T01:34:21;9.82;;;3.58;;
31676;SDS011;18385;51.572;6.578;2023-09-30T01:36:47;8.35;;;3.10;;
31676;SDS011;18385;51.572;6.578;2023-09-30T01:39:12;15.25;;;3.65;;
31676;SDS011;18385;51.572;6.578;2023-09-30T01:41:39;12.30;;;3.08;;
31676;SDS011;18385;51.572;6.578;2023-09-30T01:44:06;10.68;;;3.00;;
31676;SDS011;18385;51.572;6.578;2023-09-30T01:46:32;13.27;;;4.22;;
31676;SDS011;18385;51.572;6.578;2023-09-30T01:48:59;10.38;;;2.92;;
31676;SDS011;18385;51.572;6.578;2023-09-30T01:51:24;11.98;;;3.55;;
31676;SDS011;18385;51.572;6.578;2023-09-30T01:53:50;15.48;;;3.10;;
31676;SDS011;18385;51.572;6.578;2023-09-30T01:56:16;14.35;;;3.58;;
31676;SDS011;18385;51.572;6.578;2023-09-30T01:58:41;12.13;;;3.45;;
31676;SDS011;18385;51.572;6.578;2023-09-30T02:01:08;12.20;;;3.50;;
31676;SDS011;18385;51.572;6.578;2023-09-30T02:03:34;14.23;;;4.10;;
31676;SDS011;18385;51.572;6.578;2023-09-30T02:06:00;10.63;;;3.45;;
31676;SDS011;18385;51.572;6.578;2023-09-30T02:08:25;11.88;;;3.70;;
31676;SDS011;18385;51.572;6.578;2023-09-30T02:10:51;11.95;;;3.35;;
31676;SDS011;18385;51.572;6.578;2023-09-30T02:13:18;15.95;;;3.15;;
31676;SDS011;18385;51.572;6.578;2023-09-30T02:15:44;11.48;;;3.80;;
31676;SDS011;18385;51.572;6.578;2023-09-30T02:18:09;12.13;;;3.72;;
31676;SDS011;18385;51.572;6.578;2023-09-30T02:20:36;10.63;;;3.47;;
31676;SDS011;18385;51.572;6.578;2023-09-30T02:23:08;11.45;;;3.75;;
31676;SDS011;18385;51.572;6.578;2023-09-30T02:25:38;9.57;;;3.63;;
31676;SDS011;18385;51.572;6.578;2023-09-30T02:28:06;13.07;;;3.10;;
31676;SDS011;18385;51.572;6.578;2023-09-30T02:30:32;12.60;;;3.83;;
31676;SDS011;18385;51.572;6.578;2023-09-30T02:32:58;12.20;;;3.38;;
31676;SDS011;18385;51.572;6.578;2023-09-30T02:35:25;11.68;;;3.10;;
31676;SDS011;18385;51.572;6.578;2023-09-30T02:37:51;13.40;;;3.30;;
31676;SDS011;18385;51.572;6.578;2023-09-30T02:40:17;10.00;;;3.63;;
31676;SDS011;18385;51.572;6.578;2023-09-30T02:42:44;9.68;;;3.55;;
31676;SDS011;18385;51.572;6.578;2023-09-30T02:45:11;11.82;;;3.15;;
31676;SDS011;18385;51.572;6.578;2023-09-30T02:47:38;13.75;;;3.92;;
31676;SDS011;18385;51.572;6.578;2023-09-30T02:50:07;11.82;;;3.35;;
31676;SDS011;18385;51.572;6.578;2023-09-30T02:52:36;17.25;;;4.20;;
31676;SDS011;18385;51.572;6.578;2023-09-30T02:55:04;12.43;;;2.80;;
31676;SDS011;18385;51.572;6.578;2023-09-30T02:57:30;13.60;;;3.47;;
31676;SDS011;18385;51.572;6.578;2023-09-30T02:59:56;14.90;;;3.33;;
31676;SDS011;18385;51.572;6.578;2023-09-30T03:02:24;14.18;;;3.28;;
31676;SDS011;18385;51.572;6.578;2023-09-30T03:04:50;12.88;;;3.67;;
31676;SDS011;18385;51.572;6.578;2023-09-30T03:07:17;11.40;;;3.45;;
31676;SDS011;18385;51.572;6.578;2023-09-30T03:09:44;9.68;;;3.50;;
31676;SDS011;18385;51.572;6.578;2023-09-30T03:12:11;10.73;;;3.70;;
31676;SDS011;18385;51.572;6.578;2023-09-30T03:14:37;10.10;;;3.60;;
31676;SDS011;18385;51.572;6.578;2023-09-30T03:17:03;13.85;;;3.92;;
31676;SDS011;18385;51.572;6.578;2023-09-30T03:19:28;9.98;;;3.30;;
31676;SDS011;18385;51.572;6.578;2023-09-30T03:21:54;17.88;;;4.55;;
31676;SDS011;18385;51.572;6.578;2023-09-30T03:24:20;10.68;;;3.20;;
31676;SDS011;18385;51.572;6.578;2023-09-30T03:26:46;12.80;;;3.58;;
31676;SDS011;18385;51.572;6.578;2023-09-30T03:29:12;9.07;;;3.33;;
31676;SDS011;18385;51.572;6.578;2023-09-30T03:31:39;9.57;;;3.55;;
31676;SDS011;18385;51.572;6.578;2023-09-30T03:34:05;9.45;;;3.20;;
31676;SDS011;18385;51.572;6.578;2023-09-30T03:36:31;10.45;;;3.20;;
31676;SDS011;18385;51.572;6.578;2023-09-30T03:38:57;11.57;;;3.92;;
31676;SDS011;18385;51.572;6.578;2023-09-30T03:41:30;13.10;;;3.97;;
31676;SDS011;18385;51.572;6.578;2023-09-30T03:43:56;11.95;;;4.40;;
31676;SDS011;18385;51.572;6.578;2023-09-30T03:46:22;11.40;;;3.55;;
31676;SDS011;18385;51.572;6.578;2023-09-30T03:48:48;19.13;;;4.40;;
31676;SDS011;18385;51.572;6.578;2023-09-30T03:51:13;16.15;;;4.05;;
31676;SDS011;18385;51.572;6.578;2023-09-30T03:53:43;17.05;;;4.85;;
31676;SDS011;18385;51.572;6.578;2023-09-30T03:56:10;12.98;;;4.25;;
31676;SDS011;18385;51.572;6.578;2023-09-30T03:58:37;10.75;;;4.32;;
31676;SDS011;18385;51.572;6.578;2023-09-30T04:01:04;17.10;;;3.75;;
31676;SDS011;18385;51.572;6.578;2023-09-30T04:03:29;10.45;;;4.30;;
31676;SDS011;18385;51.572;6.578;2023-09-30T04:05:58;12.10;;;4.50;;
31676;SDS011;18385;51.572;6.578;2023-09-30T04:08:24;10.15;;;3.97;;
31676;SDS011;18385;51.572;6.578;2023-09-30T04:10:49;15.13;;;5.30;;
31676;SDS011;18385;51.572;6.578;2023-09-30T04:13:15;12.15;;;3.97;;
31676;SDS011;18385;51.572;6.578;2023-09-30T04:15:42;16.80;;;4.95;;
31676;SDS011;18385;51.572;6.578;2023-09-30T04:18:09;13.27;;;3.92;;
31676;SDS011;18385;51.572;6.578;2023-09-30T04:20:36;16.85;;;5.07;;
31676;SDS011;18385;51.572;6.578;2023-09-30T04:23:05;13.27;;;4.53;;
31676;SDS011;18385;51.572;6.578;2023-09-30T04:25:32;13.98;;;4.25;;
31676;SDS011;18385;51.572;6.578;2023-09-30T04:27:57;13.65;;;4.45;;
31676;SDS011;18385;51.572;6.578;2023-09-30T04:30:23;14.07;;;4.30;;
31676;SDS011;18385;51.572;6.578;2023-09-30T04:32:49;15.93;;;5.60;;
31676;SDS011;18385;51.572;6.578;2023-09-30T04:35:15;10.10;;;4.10;;
31676;SDS011;18385;51.572;6.578;2023-09-30T04:37:40;15.40;;;4.40;;
31676;SDS011;18385;51.572;6.578;2023-09-30T04:40:07;14.75;;;3.90;;
31676;SDS011;18385;51.572;6.578;2023-09-30T04:42:46;12.25;;;4.10;;
31676;SDS011;18385;51.572;6.578;2023-09-30T04:45:13;17.95;;;4.55;;
31676;SDS011;18385;51.572;6.578;2023-09-30T04:47:45;9.32;;;3.80;;
31676;SDS011;18385;51.572;6.578;2023-09-30T04:50:11;12.90;;;4.13;;
31676;SDS011;18385;51.572;6.578;2023-09-30T04:52:38;10.95;;;3.72;;
31676;SDS011;18385;51.572;6.578;2023-09-30T04:55:05;16.35;;;4.72;;
31676;SDS011;18385;51.572;6.578;2023-09-30T04:57:31;16.67;;;4.75;;
31676;SDS011;18385;51.572;6.578;2023-09-30T04:59:57;13.55;;;4.20;;
31676;SDS011;18385;51.572;6.578;2023-09-30T05:02:24;17.10;;;4.82;;
31676;SDS011;18385;51.572;6.578;2023-09-30T05:04:50;18.67;;;5.80;;
31676;SDS011;18385;51.572;6.578;2023-09-30T05:07:15;13.65;;;4.95;;
31676;SDS011;18385;51.572;6.578;2023-09-30T05:09:41;23.77;;;4.90;;
31676;SDS011;18385;51.572;6.578;2023-09-30T05:12:07;19.35;;;5.00;;
31676;SDS011;18385;51.572;6.578;2023-09-30T05:14:33;10.40;;;4.53;;
31676;SDS011;18385;51.572;6.578;2023-09-30T05:17:00;14.75;;;5.35;;
31676;SDS011;18385;51.572;6.578;2023-09-30T05:19:26;14.43;;;4.88;;
31676;SDS011;18385;51.572;6.578;2023-09-30T05:21:52;18.05;;;5.03;;
31676;SDS011;18385;51.572;6.578;2023-09-30T05:24:17;13.38;;;4.85;;
31676;SDS011;18385;51.572;6.578;2023-09-30T05:26:46;13.82;;;5.28;;
31676;SDS011;18385;51.572;6.578;2023-09-30T05:29:11;15.07;;;4.70;;
31676;SDS011;18385;51.572;6.578;2023-09-30T05:31:37;16.77;;;5.07;;
31676;SDS011;18385;51.572;6.578;2023-09-30T05:34:03;15.55;;;5.38;;
31676;SDS011;18385;51.572;6.578;2023-09-30T05:36:29;17.35;;;5.45;;
31676;SDS011;18385;51.572;6.578;2023-09-30T05:38:55;17.60;;;5.03;;
31676;SDS011;18385;51.572;6.578;2023-09-30T05:41:21;18.60;;;5.60;;
31676;SDS011;18385;51.572;6.578;2023-09-30T05:43:47;12.63;;;4.93;;
31676;SDS011;18385;51.572;6.578;2023-09-30T05:46:12;16.25;;;6.20;;
31676;SDS011;18385;51.572;6.578;2023-09-30T05:48:39;15.63;;;5.30;;
31676;SDS011;18385;51.572;6.578;2023-09-30T05:51:06;13.05;;;4.75;;
31676;SDS011;18385;51.572;6.578;2023-09-30T05:53:32;15.30;;;5.47;;
31676;SDS011;18385;51.572;6.578;2023-09-30T05:55:58;15.77;;;6.00;;
31676;SDS011;18385;51.572;6.578;2023-09-30T05:58:25;16.75;;;4.95;;
31676;SDS011;18385;51.572;6.578;2023-09-30T06:00:51;14.18;;;5.57;;
31676;SDS011;18385;51.572;6.578;2023-09-30T06:03:20;21.52;;;6.72;;
31676;SDS011;18385;51.572;6.578;2023-09-30T06:05:48;19.40;;;5.82;;
31676;SDS011;18385;51.572;6.578;2023-09-30T06:08:14;15.20;;;5.65;;
31676;SDS011;18385;51.572;6.578;2023-09-30T06:10:40;15.18;;;5.38;;
31676;SDS011;18385;51.572;6.578;2023-09-30T06:13:09;15.77;;;5.65;;
31676;SDS011;18385;51.572;6.578;2023-09-30T06:15:42;17.60;;;6.57;;
31676;SDS011;18385;51.572;6.578;2023-09-30T06:18:09;16.52;;;6.03;;
31676;SDS011;18385;51.572;6.578;2023-09-30T06:20:37;13.30;;;6.15;;
31676;SDS011;18385;51.572;6.578;2023-09-30T06:23:03;18.45;;;6.60;;
31676;SDS011;18385;51.572;6.578;2023-09-30T06:25:28;20.95;;;6.90;;
31676;SDS011;18385;51.572;6.578;2023-09-30T06:27:55;22.88;;;6.35;;
31676;SDS011;18385;51.572;6.578;2023-09-30T06:30:21;24.15;;;6.85;;
31676;SDS011;18385;51.572;6.578;2023-09-30T06:32:54;18.98;;;6.85;;
31676;SDS011;18385;51.572;6.578;2023-09-30T06:35:24;18.10;;;7.20;;
31676;SDS011;18385;51.572;6.578;2023-09-30T06:37:51;23.55;;;9.55;;
31676;SDS011;18385;51.572;6.578;2023-09-30T06:40:17;16.98;;;7.22;;
31676;SDS011;18385;51.572;6.578;2023-09-30T06:42:44;20.92;;;8.07;;
31676;SDS011;18385;51.572;6.578;2023-09-30T06:45:10;28.13;;;9.10;;
31676;SDS011;18385;51.572;6.578;2023-09-30T06:47:36;21.40;;;9.13;;
31676;SDS011;18385;51.572;6.578;2023-09-30T06:50:12;25.20;;;8.25;;
31676;SDS011;18385;51.572;6.578;2023-09-30T06:52:42;27.38;;;9.82;;
31676;SDS011;18385;51.572;6.578;2023-09-30T06:55:10;25.23;;;9.88;;
31676;SDS011;18385;51.572;6.578;2023-09-30T06:57:39;33.50;;;10.53;;
31676;SDS011;18385;51.572;6.578;2023-09-30T07:00:13;24.35;;;8.48;;
31676;SDS011;18385;51.572;6.578;2023-09-30T07:02:39;26.17;;;9.15;;
31676;SDS011;18385;51.572;6.578;2023-09-30T07:05:09;28.98;;;8.77;;
31676;SDS011;18385;51.572;6.578;2023-09-30T07:07:36;25.85;;;8.85;;
31676;SDS011;18385;51.572;6.578;2023-09-30T07:10:02;22.05;;;8.50;;
31676;SDS011;18385;51.572;6.578;2023-09-30T07:12:31;24.45;;;8.70;;
31676;SDS011;18385;51.572;6.578;2023-09-30T07:15:00;23.03;;;9.33;;
31676;SDS011;18385;51.572;6.578;2023-09-30T07:17:30;22.10;;;8.18;;
31676;SDS011;18385;51.572;6.578;2023-09-30T07:19:56;19.30;;;8.73;;
31676;SDS011;18385;51.572;6.578;2023-09-30T07:22:22;20.10;;;7.85;;
31676;SDS011;18385;51.572;6.578;2023-09-30T07:24:47;18.95;;;7.90;;
31676;SDS011;18385;51.572;6.578;2023-09-30T07:27:13;21.35;;;7.70;;
31676;SDS011;18385;51.572;6.578;2023-09-30T07:29:39;19.73;;;7.38;;
31676;SDS011;18385;51.572;6.578;2023-09-30T07:32:06;19.15;;;7.72;;
31676;SDS011;18385;51.572;6.578;2023-09-30T07:34:32;19.80;;;8.10;;
31676;SDS011;18385;51.572;6.578;2023-09-30T07:36:58;19.20;;;7.70;;
31676;SDS011;18385;51.572;6.578;2023-09-30T07:39:23;19.27;;;7.90;;
31676;SDS011;18385;51.572;6.578;2023-09-30T07:41:49;22.17;;;8.70;;
31676;SDS011;18385;51.572;6.578;2023-09-30T07:44:15;20.95;;;8.15;;
31676;SDS011;18385;51.572;6.578;2023-09-30T07:46:40;17.67;;;7.00;;
31676;SDS011;18385;51.572;6.578;2023-09-30T07:49:07;14.52;;;6.57;;
31676;SDS011;18385;51.572;6.578;2023-09-30T07:51:34;13.82;;;6.32;;
31676;SDS011;18385;51.572;6.578;2023-09-30T07:54:00;15.40;;;6.65;;
31676;SDS011;18385;51.572;6.578;2023-09-30T07:56:26;17.70;;;7.57;;
31676;SDS011;18385;51.572;6.578;2023-09-30T07:58:52;17.63;;;6.60;;
31676;SDS011;18385;51.572;6.578;2023-09-30T08:01:18;21.73;;;7.90;;
31676;SDS011;18385;51.572;6.578;2023-09-30T08:03:44;20.05;;;7.25;;
31676;SDS011;18385;51.572;6.578;2023-09-30T08:06:10;13.70;;;6.90;;
31676;SDS011;18385;51.572;6.578;2023-09-30T08:08:36;13.25;;;6.55;;
31676;SDS011;18385;51.572;6.578;2023-09-30T08:11:02;15.85;;;6.00;;
31676;SDS011;18385;51.572;6.578;2023-09-30T08:13:27;18.25;;;7.28;;
31676;SDS011;18385;51.572;6.578;2023-09-30T08:15:54;14.30;;;7.18;;
31676;SDS011;18385;51.572;6.578;2023-09-30T08:18:20;16.90;;;7.15;;
31676;SDS011;18385;51.572;6.578;2023-09-30T08:20:46;16.48;;;6.10;;
31676;SDS011;18385;51.572;6.578;2023-09-30T08:23:12;16.63;;;7.68;;
31676;SDS011;18385;51.572;6.578;2023-09-30T08:25:38;13.50;;;5.85;;
31676;SDS011;18385;51.572;6.578;2023-09-30T08:28:04;13.85;;;5.82;;
31676;SDS011;18385;51.572;6.578;2023-09-30T08:30:30;15.48;;;5.78;;
31676;SDS011;18385;51.572;6.578;2023-09-30T08:32:58;13.43;;;5.25;;
31676;SDS011;18385;51.572;6.578;2023-09-30T08:35:24;15.15;;;7.30;;
31676;SDS011;18385;51.572;6.578;2023-09-30T08:37:50;13.32;;;5.63;;
31676;SDS011;18385;51.572;6.578;2023-09-30T08:40:22;14.70;;;5.30;;
31676;SDS011;18385;51.572;6.578;2023-09-30T08:42:51;10.30;;;5.43;;
31676;SDS011;18385;51.572;6.578;2023-09-30T08:45:18;12.73;;;5.32;;
31676;SDS011;18385;51.572;6.578;2023-09-30T08:47:44;10.45;;;5.25;;
31676;SDS011;18385;51.572;6.578;2023-09-30T08:50:15;13.52;;;5.57;;
31676;SDS011;18385;51.572;6.578;2023-09-30T08:52:41;12.73;;;5.13;;
31676;SDS011;18385;51.572;6.578;2023-09-30T08:55:09;9.10;;;4.35;;
31676;SDS011;18385;51.572;6.578;2023-09-30T08:57:36;13.30;;;5.38;;
31676;SDS011;18385;51.572;6.578;2023-09-30T09:00:05;11.10;;;4.45;;
31676;SDS011;18385;51.572;6.578;2023-09-30T09:02:35;12.85;;;3.95;;
31676;SDS011;18385;51.572;6.578;2023-09-30T09:05:01;11.32;;;5.13;;
31676;SDS011;18385;51.572;6.578;2023-09-30T09:07:27;10.38;;;3.97;;
31676;SDS011;18385;51.572;6.578;2023-09-30T09:10:06;10.02;;;5.13;;
31676;SDS011;18385;51.572;6.578;2023-09-30T09:12:34;14.75;;;6.28;;
31676;SDS011;18385;51.572;6.578;2023-09-30T09:15:02;16.80;;;5.47;;
31676;SDS011;18385;51.572;6.578;2023-09-30T09:17:41;8.35;;;4.05;;
31676;SDS011;18385;51.572;6.578;2023-09-30T09:20:10;8.82;;;3.75;;
31676;SDS011;18385;51.572;6.578;2023-09-30T09:22:42;7.55;;;3.47;;
31676;SDS011;18385;51.572;6.578;2023-09-30T09:25:09;7.82;;;3.22;;
31676;SDS011;18385;51.572;6.578;2023-09-30T09:27:36;8.75;;;3.90;;
31676;SDS011;18385;51.572;6.578;2023-09-30T09:30:19;10.32;;;4.75;;
31676;SDS011;18385;51.572;6.578;2023-09-30T09:33:04;7.95;;;3.60;;
31676;SDS011;18385;51.572;6.578;2023-09-30T09:35:32;10.07;;;4.00;;
31676;SDS011;18385;51.572;6.578;2023-09-30T09:38:00;10.25;;;3.80;;
31676;SDS011;18385;51.572;6.578;2023-09-30T09:40:27;9.27;;;3.40;;
31676;SDS011;18385;51.572;6.578;2023-09-30T09:42:54;6.80;;;2.97;;
31676;SDS011;18385;51.572;6.578;2023-09-30T09:45:21;7.40;;;3.40;;
31676;SDS011;18385;51.572;6.578;2023-09-30T09:47:51;10.25;;;4.05;;
31676;SDS011;18385;51.572;6.578;2023-09-30T09:50:18;12.93;;;3.45;;
31676;SDS011;18385;51.572;6.578;2023-09-30T09:52:47;10.57;;;4.15;;
31676;SDS011;18385;51.572;6.578;2023-09-30T09:55:19;8.07;;;3.40;;
31676;SDS011;18385;51.572;6.578;2023-09-30T09:57:47;9.40;;;2.60;;
31676;SDS011;18385;51.572;6.578;2023-09-30T10:00:21;7.88;;;3.03;;
31676;SDS011;18385;51.572;6.578;2023-09-30T10:02:49;8.77;;;2.75;;
31676;SDS011;18385;51.572;6.578;2023-09-30T10:05:16;6.60;;;2.78;;
31676;SDS011;18385;51.572;6.578;2023-09-30T10:10:15;7.78;;;3.08;;
31676;SDS011;18385;51.572;6.578;2023-09-30T10:12:43;10.55;;;3.67;;
31676;SDS011;18385;51.572;6.578;2023-09-30T10:20:30;9.05;;;3.50;;
31676;SDS011;18385;51.572;6.578;2023-09-30T10:28:46;7.72;;;3.53;;
31676;SDS011;18385;51.572;6.578;2023-09-30T10:31:22;8.38;;;4.38;;
31676;SDS011;18385;51.572;6.578;2023-09-30T10:36:29;6.18;;;3.47;;
31676;SDS011;18385;51.572;6.578;2023-09-30T10:38:55;8.90;;;3.92;;
31676;SDS011;18385;51.572;6.578;2023-09-30T10:46:56;6.90;;;4.03;;
31676;SDS011;18385;51.572;6.578;2023-09-30T10:49:35;9.73;;;4.88;;
31676;SDS011;18385;51.572;6.578;2023-09-30T10:52:05;9.10;;;4.20;;
31676;SDS011;18385;51.572;6.578;2023-09-30T10:54:32;6.40;;;3.58;;
31676;SDS011;18385;51.572;6.578;2023-09-30T10:57:00;7.88;;;4.28;;
31676;SDS011;18385;51.572;6.578;2023-09-30T10:59:29;6.93;;;3.35;;
31676;SDS011;18385;51.572;6.578;2023-09-30T11:02:02;7.50;;;3.03;;
31676;SDS011;18385;51.572;6.578;2023-09-30T11:04:29;6.85;;;3.47;;
31676;SDS011;18385;51.572;6.578;2023-09-30T11:07:10;6.88;;;3.30;;
31676;SDS011;18385;51.572;6.578;2023-09-30T11:09:36;7.28;;;4.07;;
31676;SDS011;18385;51.572;6.578;2023-09-30T11:12:02;8.32;;;3.53;;
31676;SDS011;18385;51.572;6.578;2023-09-30T11:14:28;6.53;;;3.78;;
31676;SDS011;18385;51.572;6.578;2023-09-30T11:16:56;7.55;;;4.10;;
31676;SDS011;18385;51.572;6.578;2023-09-30T11:19:23;8.50;;;3.63;;
31676;SDS011;18385;51.572;6.578;2023-09-30T11:21:50;5.38;;;3.10;;
31676;SDS011;18385;51.572;6.578;2023-09-30T11:24:20;11.57;;;3.85;;
31676;SDS011;18385;51.572;6.578;2023-09-30T11:26:46;7.63;;;3.30;;
31676;SDS011;18385;51.572;6.578;2023-09-30T11:29:13;6.07;;;2.22;;
31676;SDS011;18385;51.572;6.578;2023-09-30T11:31:41;8.63;;;3.10;;
31676;SDS011;18385;51.572;6.578;2023-09-30T11:34:08;8.32;;;3.22;;
31676;SDS011;18385;51.572;6.578;2023-09-30T11:36:35;5.82;;;3.45;;
31676;SDS011;18385;51.572;6.578;2023-09-30T11:39:03;7.95;;;2.38;;
31676;SDS011;18385;51.572;6.578;2023-09-30T11:41:36;5.20;;;2.35;;
31676;SDS011;18385;51.572;6.578;2023-09-30T11:44:10;6.15;;;2.13;;
31676;SDS011;18385;51.572;6.578;2023-09-30T11:52:03;4.25;;;1.73;;
31676;SDS011;18385;51.572;6.578;2023-09-30T11:59:42;7.15;;;2.88;;
31676;SDS011;18385;51.572;6.578;2023-09-30T12:02:09;7.60;;;2.70;;
31676;SDS011;18385;51.572;6.578;2023-09-30T12:04:38;6.97;;;2.72;;
31676;SDS011;18385;51.572;6.578;2023-09-30T12:07:04;5.78;;;2.28;;
31676;SDS011;18385;51.572;6.578;2023-09-30T12:09:33;5.22;;;2.90;;
31676;SDS011;18385;51.572;6.578;2023-09-30T12:12:02;7.13;;;3.33;;
31676;SDS011;18385;51.572;6.578;2023-09-30T12:14:28;5.35;;;2.63;;
31676;SDS011;18385;51.572;6.578;2023-09-30T12:16:58;4.85;;;2.17;;
31676;SDS011;18385;51.572;6.578;2023-09-30T12:19:23;7.63;;;2.58;;
31676;SDS011;18385;51.572;6.578;2023-09-30T12:21:50;6.72;;;2.30;;
31676;SDS011;18385;51.572;6.578;2023-09-30T12:24:15;4.93;;;2.45;;
31676;SDS011;18385;51.572;6.578;2023-09-30T12:26:46;4.53;;;2.08;;
31676;SDS011;18385;51.572;6.578;2023-09-30T12:29:18;4.53;;;1.67;;
31676;SDS011;18385;51.572;6.578;2023-09-30T12:31:45;4.25;;;2.35;;
31676;SDS011;18385;51.572;6.578;2023-09-30T12:34:12;8.10;;;2.63;;
31676;SDS011;18385;51.572;6.578;2023-09-30T12:36:38;5.47;;;2.10;;
31676;SDS011;18385;51.572;6.578;2023-09-30T12:39:04;8.93;;;2.00;;
31676;SDS011;18385;51.572;6.578;2023-09-30T12:41:39;5.60;;;2.40;;
31676;SDS011;18385;51.572;6.578;2023-09-30T12:44:05;5.20;;;2.55;;
31676;SDS011;18385;51.572;6.578;2023-09-30T12:46:32;7.40;;;3.22;;
31676;SDS011;18385;51.572;6.578;2023-09-30T12:49:03;4.53;;;2.30;;
31676;SDS011;18385;51.572;6.578;2023-09-30T12:51:29;4.88;;;2.20;;
31676;SDS011;18385;51.572;6.578;2023-09-30T12:53:55;8.45;;;2.17;;
31676;SDS011;18385;51.572;6.578;2023-09-30T12:56:22;5.05;;;1.95;;
31676;SDS011;18385;51.572;6.578;2023-09-30T12:58:48;8.00;;;2.20;;
31676;SDS011;18385;51.572;6.578;2023-09-30T13:01:14;4.43;;;1.80;;
31676;SDS011;18385;51.572;6.578;2023-09-30T13:03:41;6.38;;;2.03;;
31676;SDS011;18385;51.572;6.578;2023-09-30T13:06:06;5.13;;;1.95;;
31676;SDS011;18385;51.572;6.578;2023-09-30T13:08:32;6.10;;;1.85;;
31676;SDS011;18385;51.572;6.578;2023-09-30T13:11:00;4.50;;;2.22;;
31676;SDS011;18385;51.572;6.578;2023-09-30T13:13:27;5.63;;;2.08;;
31676;SDS011;18385;51.572;6.578;2023-09-30T13:15:56;5.88;;;2.28;;
31676;SDS011;18385;51.572;6.578;2023-09-30T13:18:22;3.70;;;2.17;;
31676;SDS011;18385;51.572;6.578;2023-09-30T13:20:48;5.18;;;2.15;;
31676;SDS011;18385;51.572;6.578;2023-09-30T13:23:14;5.88;;;2.30;;
31676;SDS011;18385;51.572;6.578;2023-09-30T13:25:40;4.68;;;2.03;;
31676;SDS011;18385;51.572;6.578;2023-09-30T13:28:05;5.03;;;1.88;;
31676;SDS011;18385;51.572;6.578;2023-09-30T13:30:31;3.58;;;2.10;;
31676;SDS011;18385;51.572;6.578;2023-09-30T13:32:57;5.05;;;2.00;;
31676;SDS011;18385;51.572;6.578;2023-09-30T13:35:23;4.18;;;1.85;;
31676;SDS011;18385;51.572;6.578;2023-09-30T13:37:48;3.38;;;1.75;;
31676;SDS011;18385;51.572;6.578;2023-09-30T13:40:14;4.88;;;1.92;;
31676;SDS011;18385;51.572;6.578;2023-09-30T13:42:40;6.43;;;2.30;;
31676;SDS011;18385;51.572;6.578;2023-09-30T13:45:05;3.65;;;1.88;;
31676;SDS011;18385;51.572;6.578;2023-09-30T13:47:32;5.28;;;1.63;;
31676;SDS011;18385;51.572;6.578;2023-09-30T13:49:58;3.50;;;1.70;;
31676;SDS011;18385;51.572;6.578;2023-09-30T13:52:23;4.20;;;2.33;;
31676;SDS011;18385;51.572;6.578;2023-09-30T13:54:49;4.25;;;2.10;;
31676;SDS011;18385;51.572;6.578;2023-09-30T13:57:15;4.93;;;2.30;;
31676;SDS011;18385;51.572;6.578;2023-09-30T13:59:41;4.07;;;1.48;;
31676;SDS011;18385;51.572;6.578;2023-09-30T14:02:09;8.50;;;2.40;;
31676;SDS011;18385;51.572;6.578;2023-09-30T14:04:35;2.63;;;1.42;;
31676;SDS011;18385;51.572;6.578;2023-09-30T14:07:01;5.57;;;2.40;;
31676;SDS011;18385;51.572;6.578;2023-09-30T14:09:27;6.20;;;2.08;;
31676;SDS011;18385;51.572;6.578;2023-09-30T14:11:54;6.32;;;2.55;;
31676;SDS011;18385;51.572;6.578;2023-09-30T14:14:19;4.70;;;1.90;;
31676;SDS011;18385;51.572;6.578;2023-09-30T14:16:45;3.67;;;1.85;;
31676;SDS011;18385;51.572;6.578;2023-09-30T14:19:12;4.20;;;2.10;;
31676;SDS011;18385;51.572;6.578;2023-09-30T14:21:39;5.40;;;2.13;;
31676;SDS011;18385;51.572;6.578;2023-09-30T14:24:08;5.60;;;1.65;;
31676;SDS011;18385;51.572;6.578;2023-09-30T14:26:33;5.75;;;2.17;;
31676;SDS011;18385;51.572;6.578;2023-09-30T14:28:59;4.90;;;1.40;;
31676;SDS011;18385;51.572;6.578;2023-09-30T14:31:25;4.20;;;1.63;;
31676;SDS011;18385;51.572;6.578;2023-09-30T14:33:51;5.65;;;1.80;;
31676;SDS011;18385;51.572;6.578;2023-09-30T14:36:17;3.58;;;1.75;;
31676;SDS011;18385;51.572;6.578;2023-09-30T14:38:47;3.97;;;1.65;;
31676;SDS011;18385;51.572;6.578;2023-09-30T14:41:14;4.63;;;1.80;;
31676;SDS011;18385;51.572;6.578;2023-09-30T14:43:40;4.82;;;1.67;;
31676;SDS011;18385;51.572;6.578;2023-09-30T14:46:06;7.38;;;2.85;;
31676;SDS011;18385;51.572;6.578;2023-09-30T14:48:33;4.95;;;1.80;;
31676;SDS011;18385;51.572;6.578;2023-09-30T14:50:59;4.50;;;1.65;;
31676;SDS011;18385;51.572;6.578;2023-09-30T14:53:24;5.00;;;1.80;;
31676;SDS011;18385;51.572;6.578;2023-09-30T14:55:50;3.80;;;1.27;;
31676;SDS011;18385;51.572;6.578;2023-09-30T14:58:16;4.10;;;1.60;;
31676;SDS011;18385;51.572;6.578;2023-09-30T15:00:42;7.05;;;2.33;;
31676;SDS011;18385;51.572;6.578;2023-09-30T15:03:08;3.67;;;1.80;;
31676;SDS011;18385;51.572;6.578;2023-09-30T15:05:34;6.45;;;2.38;;
31676;SDS011;18385;51.572;6.578;2023-09-30T15:08:00;3.70;;;1.52;;
31676;SDS011;18385;51.572;6.578;2023-09-30T15:10:27;6.03;;;1.80;;
31676;SDS011;18385;51.572;6.578;2023-09-30T15:12:54;4.90;;;1.88;;